sensor_id;sensor_type;location;lat;lon;timestamp;pressure;altitude;pressure_sealevel;temperature;humidity
43298;BME280;28892;55.640;37.532;2022-07-29T12:48:38;98904.34;;;25.01;37.04
43298;BME280;28892;55.640;37.532;2022-07-29T12:51:05;98900.91;;;24.90;38.25
43298;BME280;28892;55.640;37.532;2022-07-29T12:53:32;98898.69;;;24.97;38.45
43298;BME280;28892;55.640;37.532;2022-07-29T12:55:58;98900.34;;;24.59;37.99
43298;BME280;28892;55.640;37.532;2022-07-29T12:58:34;98899.50;;;24.23;38.24
43298;BME280;28892;55.640;37.532;2022-07-29T13:01:16;98903.63;;;24.10;38.26
43298;BME280;28892;55.640;37.532;2022-07-29T13:03:53;98901.00;;;24.40;37.33
43298;BME280;28892;55.640;37.532;2022-07-29T13:06:44;98909.84;;;24.11;37.82
43298;BME280;28892;55.640;37.532;2022-07-29T13:09:16;98909.44;;;23.78;38.59
43298;BME280;28892;55.640;37.532;2022-07-29T13:11:49;98897.34;;;23.65;39.84
43298;BME280;28892;55.640;37.532;2022-07-29T13:14:38;98900.69;;;24.02;38.51
43298;BME280;28892;55.640;37.532;2022-07-29T13:17:15;98899.06;;;24.46;38.69
43298;BME280;28892;55.640;37.532;2022-07-29T13:19:48;98906.97;;;24.77;38.65
43298;BME280;28892;55.640;37.532;2022-07-29T13:22:21;98896.47;;;25.00;37.35
43298;BME280;28892;55.640;37.532;2022-07-29T13:24:57;98901.88;;;25.05;37.59
43298;BME280;28892;55.640;37.532;2022-07-29T13:27:27;98900.38;;;24.88;37.01
43298;BME280;28892;55.640;37.532;2022-07-29T13:29:55;98903.66;;;24.50;38.63
43298;BME280;28892;55.640;37.532;2022-07-29T13:32:23;98898.66;;;24.68;38.05
43298;BME280;28892;55.640;37.532;2022-07-29T13:34:50;98895.56;;;24.80;38.00
43298;BME280;28892;55.640;37.532;2022-07-29T13:37:16;98895.06;;;24.78;36.53
43298;BME280;28892;55.640;37.532;2022-07-29T13:39:42;98891.16;;;24.89;37.09
43298;BME280;28892;55.640;37.532;2022-07-29T13:42:08;98895.88;;;24.73;37.85
43298;BME280;28892;55.640;37.532;2022-07-29T13:44:35;98905.59;;;24.45;38.18
43298;BME280;28892;55.640;37.532;2022-07-29T13:47:00;98901.50;;;24.47;38.32
43298;BME280;28892;55.640;37.532;2022-07-29T13:49:26;98891.63;;;24.62;38.07
43298;BME280;28892;55.640;37.532;2022-07-29T13:51:53;98908.53;;;24.88;36.75
43298;BME280;28892;55.640;37.532;2022-07-29T13:54:18;98898.50;;;24.89;36.84
43298;BME280;28892;55.640;37.532;2022-07-29T13:56:44;98906.09;;;24.52;37.62
43298;BME280;28892;55.640;37.532;2022-07-29T13:59:10;98899.75;;;24.62;37.98
43298;BME280;28892;55.640;37.532;2022-07-29T14:01:36;98896.53;;;24.20;39.05
43298;BME280;28892;55.640;37.532;2022-07-29T14:04:02;98900.31;;;24.24;38.15
43298;BME280;28892;55.640;37.532;2022-07-29T14:06:28;98903.31;;;24.17;38.82
43298;BME280;28892;55.640;37.532;2022-07-29T14:08:54;98891.88;;;24.65;37.89
43298;BME280;28892;55.640;37.532;2022-07-29T14:11:20;98886.81;;;24.88;37.15
43298;BME280;28892;55.640;37.532;2022-07-29T14:13:46;98891.38;;;24.98;37.11
43298;BME280;28892;55.640;37.532;2022-07-29T14:16:12;98883.78;;;24.60;37.23
43298;BME280;28892;55.640;37.532;2022-07-29T14:18:37;98888.81;;;24.42;37.32
43298;BME280;28892;55.640;37.532;2022-07-29T14:21:03;98881.59;;;24.27;38.12
43298;BME280;28892;55.640;37.532;2022-07-29T14:23:29;98886.63;;;24.45;38.44
43298;BME280;28892;55.640;37.532;2022-07-29T14:25:55;98887.97;;;24.77;37.02
43298;BME280;28892;55.640;37.532;2022-07-29T14:28:20;98887.88;;;24.92;37.22
43298;BME280;28892;55.640;37.532;2022-07-29T14:30:46;98883.44;;;25.02;36.87
43298;BME280;28892;55.640;37.532;2022-07-29T14:33:12;98886.25;;;25.21;36.18
43298;BME280;28892;55.640;37.532;2022-07-29T14:35:37;98877.50;;;25.00;37.15
43298;BME280;28892;55.640;37.532;2022-07-29T14:38:03;98868.06;;;24.62;36.50
43298;BME280;28892;55.640;37.532;2022-07-29T14:40:31;98874.44;;;24.42;36.53
43298;BME280;28892;55.640;37.532;2022-07-29T14:42:57;98876.50;;;24.55;36.53
43298;BME280;28892;55.640;37.532;2022-07-29T14:45:23;98877.13;;;24.77;36.09
43298;BME280;28892;55.640;37.532;2022-07-29T14:47:49;98869.44;;;24.89;35.83
43298;BME280;28892;55.640;37.532;2022-07-29T14:50:16;98865.47;;;24.76;35.96
43298;BME280;28892;55.640;37.532;2022-07-29T14:52:42;98869.53;;;24.79;35.91
43298;BME280;28892;55.640;37.532;2022-07-29T14:55:08;98870.13;;;24.70;36.39
43298;BME280;28892;55.640;37.532;2022-07-29T14:57:34;98872.31;;;25.03;36.10
43298;BME280;28892;55.640;37.532;2022-07-29T15:00:00;98878.16;;;24.86;37.01
43298;BME280;28892;55.640;37.532;2022-07-29T15:02:25;98874.44;;;24.77;37.52
43298;BME280;28892;55.640;37.532;2022-07-29T15:04:51;98875.34;;;24.62;37.45
43298;BME280;28892;55.640;37.532;2022-07-29T15:07:17;98877.13;;;24.47;37.46
43298;BME280;28892;55.640;37.532;2022-07-29T15:09:43;98877.13;;;24.42;37.75
43298;BME280;28892;55.640;37.532;2022-07-29T15:12:10;98875.28;;;24.37;37.48
43298;BME280;28892;55.640;37.532;2022-07-29T15:14:36;98874.28;;;24.23;37.79
43298;BME280;28892;55.640;37.532;2022-07-29T15:17:02;98880.59;;;24.13;38.27
43298;BME280;28892;55.640;37.532;2022-07-29T15:19:28;98875.66;;;24.20;37.63
43298;BME280;28892;55.640;37.532;2022-07-29T15:21:53;98879.16;;;24.26;37.82
43298;BME280;28892;55.640;37.532;2022-07-29T15:24:19;98879.69;;;24.28;38.15
43298;BME280;28892;55.640;37.532;2022-07-29T15:26:45;98882.59;;;24.37;37.42
43298;BME280;28892;55.640;37.532;2022-07-29T15:29:11;98878.22;;;24.06;38.28
43298;BME280;28892;55.640;37.532;2022-07-29T15:31:37;98879.06;;;23.91;38.70
43298;BME280;28892;55.640;37.532;2022-07-29T15:34:03;98883.59;;;24.01;38.17
43298;BME280;28892;55.640;37.532;2022-07-29T15:36:29;98880.09;;;24.06;37.95
43298;BME280;28892;55.640;37.532;2022-07-29T15:38:55;98884.41;;;24.07;37.62
43298;BME280;28892;55.640;37.532;2022-07-29T15:41:21;98885.28;;;23.97;37.87
43298;BME280;28892;55.640;37.532;2022-07-29T15:43:47;98888.03;;;23.86;38.39
43298;BME280;28892;55.640;37.532;2022-07-29T15:46:15;98886.47;;;23.75;38.80
43298;BME280;28892;55.640;37.532;2022-07-29T15:49:00;98883.66;;;23.91;38.38
43298;BME280;28892;55.640;37.532;2022-07-29T15:51:26;98882.06;;;23.90;38.37
43298;BME280;28892;55.640;37.532;2022-07-29T15:53:52;98888.59;;;23.78;39.37
43298;BME280;28892;55.640;37.532;2022-07-29T15:56:17;98896.13;;;23.92;38.74
43298;BME280;28892;55.640;37.532;2022-07-29T15:58:43;98909.06;;;24.05;39.15
43298;BME280;28892;55.640;37.532;2022-07-29T16:01:08;98912.03;;;24.14;39.11
43298;BME280;28892;55.640;37.532;2022-07-29T16:03:35;98910.63;;;24.22;40.30
43298;BME280;28892;55.640;37.532;2022-07-29T16:06:01;98912.22;;;24.28;41.13
43298;BME280;28892;55.640;37.532;2022-07-29T16:08:27;98908.22;;;24.10;41.63
43298;BME280;28892;55.640;37.532;2022-07-29T16:10:53;98920.19;;;24.04;41.68
43298;BME280;28892;55.640;37.532;2022-07-29T16:13:18;98918.88;;;23.96;42.01
43298;BME280;28892;55.640;37.532;2022-07-29T16:15:45;98934.56;;;23.94;42.68
43298;BME280;28892;55.640;37.532;2022-07-29T16:18:10;98931.06;;;23.93;42.27
43298;BME280;28892;55.640;37.532;2022-07-29T16:20:38;98938.38;;;23.88;42.21
43298;BME280;28892;55.640;37.532;2022-07-29T16:23:04;98941.66;;;23.79;41.98
43298;BME280;28892;55.640;37.532;2022-07-29T16:25:30;98941.44;;;23.70;42.50
43298;BME280;28892;55.640;37.532;2022-07-29T16:27:56;98944.44;;;23.58;42.55
43298;BME280;28892;55.640;37.532;2022-07-29T16:30:21;98946.09;;;23.44;43.60
43298;BME280;28892;55.640;37.532;2022-07-29T16:32:47;98953.41;;;23.43;43.43
43298;BME280;28892;55.640;37.532;2022-07-29T16:35:13;98951.53;;;23.34;43.86
43298;BME280;28892;55.640;37.532;2022-07-29T16:37:39;98945.31;;;23.33;43.67
43298;BME280;28892;55.640;37.532;2022-07-29T16:40:06;98944.50;;;23.33;43.95
43298;BME280;28892;55.640;37.532;2022-07-29T16:42:33;98944.50;;;23.33;44.13
43298;BME280;28892;55.640;37.532;2022-07-29T16:44:59;98938.78;;;23.24;44.03
43298;BME280;28892;55.640;37.532;2022-07-29T16:47:25;98935.56;;;23.22;43.99
43298;BME280;28892;55.640;37.532;2022-07-29T16:49:50;98935.31;;;23.13;44.55
43298;BME280;28892;55.640;37.532;2022-07-29T16:52:16;98939.09;;;23.07;44.17
43298;BME280;28892;55.640;37.532;2022-07-29T16:54:42;98937.19;;;23.02;44.53
43298;BME280;28892;55.640;37.532;2022-07-29T16:57:07;98940.97;;;23.11;44.67
43298;BME280;28892;55.640;37.532;2022-07-29T16:59:33;98941.81;;;23.12;44.30
43298;BME280;28892;55.640;37.532;2022-07-29T17:01:59;98939.63;;;23.14;44.20
43298;BME280;28892;55.640;37.532;2022-07-29T17:04:27;98945.88;;;23.04;44.19
43298;BME280;28892;55.640;37.532;2022-07-29T17:06:53;98944.50;;;23.01;44.22
43298;BME280;28892;55.640;37.532;2022-07-29T17:09:19;98944.50;;;23.01;43.95
43298;BME280;28892;55.640;37.532;2022-07-29T17:11:45;98960.19;;;23.15;44.66
43298;BME280;28892;55.640;37.532;2022-07-29T17:14:25;98954.25;;;23.13;43.76
43298;BME280;28892;55.640;37.532;2022-07-29T17:16:52;98954.50;;;23.22;43.39
43298;BME280;28892;55.640;37.532;2022-07-29T17:19:19;98956.13;;;23.12;43.70
43298;BME280;28892;55.640;37.532;2022-07-29T17:21:45;98948.31;;;23.11;43.75
43298;BME280;28892;55.640;37.532;2022-07-29T17:24:11;98950.47;;;23.03;43.88
43298;BME280;28892;55.640;37.532;2022-07-29T17:26:37;98946.13;;;22.92;44.14
43298;BME280;28892;55.640;37.532;2022-07-29T17:29:04;98953.16;;;22.83;44.38
43298;BME280;28892;55.640;37.532;2022-07-29T17:31:30;98955.06;;;22.72;44.58
43298;BME280;28892;55.640;37.532;2022-07-29T17:33:56;98956.38;;;22.64;45.33
43298;BME280;28892;55.640;37.532;2022-07-29T17:36:24;98954.78;;;22.58;45.51
43298;BME280;28892;55.640;37.532;2022-07-29T17:38:53;98957.44;;;22.47;45.61
43298;BME280;28892;55.640;37.532;2022-07-29T17:41:20;98965.00;;;22.45;46.21
43298;BME280;28892;55.640;37.532;2022-07-29T17:43:46;98956.84;;;22.40;46.16
43298;BME280;28892;55.640;37.532;2022-07-29T17:46:13;98962.53;;;22.28;46.29
43298;BME280;28892;55.640;37.532;2022-07-29T17:48:38;98957.34;;;22.22;46.02
43298;BME280;28892;55.640;37.532;2022-07-29T17:51:04;98964.38;;;22.12;46.07
43298;BME280;28892;55.640;37.532;2022-07-29T17:53:30;98962.13;;;21.94;47.46
43298;BME280;28892;55.640;37.532;2022-07-29T17:55:55;98954.81;;;21.84;47.33
43298;BME280;28892;55.640;37.532;2022-07-29T17:58:22;98967.50;;;21.88;47.15
43298;BME280;28892;55.640;37.532;2022-07-29T18:00:48;98963.41;;;21.81;47.43
43298;BME280;28892;55.640;37.532;2022-07-29T18:03:14;98963.66;;;21.74;46.60
43298;BME280;28892;55.640;37.532;2022-07-29T18:05:40;98973.41;;;21.80;47.20
43298;BME280;28892;55.640;37.532;2022-07-29T18:08:06;98964.75;;;21.78;46.04
43298;BME280;28892;55.640;37.532;2022-07-29T18:10:31;98969.50;;;21.60;46.15
43298;BME280;28892;55.640;37.532;2022-07-29T18:12:57;98973.56;;;21.63;46.85
43298;BME280;28892;55.640;37.532;2022-07-29T18:15:23;98969.38;;;21.45;47.45
43298;BME280;28892;55.640;37.532;2022-07-29T18:17:48;98973.97;;;21.44;47.19
43298;BME280;28892;55.640;37.532;2022-07-29T18:20:14;98975.28;;;21.37;47.22
43298;BME280;28892;55.640;37.532;2022-07-29T18:22:40;98982.03;;;21.39;46.87
43298;BME280;28892;55.640;37.532;2022-07-29T18:25:06;98979.34;;;21.39;47.15
43298;BME280;28892;55.640;37.532;2022-07-29T18:27:32;98979.16;;;21.51;46.99
43298;BME280;28892;55.640;37.532;2022-07-29T18:29:58;98979.84;;;21.36;47.71
43298;BME280;28892;55.640;37.532;2022-07-29T18:32:23;98982.84;;;21.40;47.80
43298;BME280;28892;55.640;37.532;2022-07-29T18:34:50;98979.09;;;21.41;47.50
43298;BME280;28892;55.640;37.532;2022-07-29T18:37:15;98987.72;;;21.43;47.67
43298;BME280;28892;55.640;37.532;2022-07-29T18:39:43;98987.78;;;21.53;47.16
43298;BME280;28892;55.640;37.532;2022-07-29T18:42:08;98987.25;;;21.51;47.80
43298;BME280;28892;55.640;37.532;2022-07-29T18:44:34;98992.09;;;21.49;46.92
43298;BME280;28892;55.640;37.532;2022-07-29T18:47:00;98992.09;;;21.49;47.39
43298;BME280;28892;55.640;37.532;2022-07-29T18:49:25;98990.47;;;21.48;47.77
43298;BME280;28892;55.640;37.532;2022-07-29T18:51:52;98989.31;;;21.39;47.99
43298;BME280;28892;55.640;37.532;2022-07-29T18:54:18;98993.09;;;21.38;48.58
43298;BME280;28892;55.640;37.532;2022-07-29T18:56:45;98995.50;;;21.34;48.62
43298;BME280;28892;55.640;37.532;2022-07-29T18:59:11;98985.19;;;21.26;48.49
43298;BME280;28892;55.640;37.532;2022-07-29T19:01:42;98981.69;;;21.25;48.79
43298;BME280;28892;55.640;37.532;2022-07-29T19:04:08;98982.47;;;21.26;48.77
43298;BME280;28892;55.640;37.532;2022-07-29T19:06:33;98984.09;;;21.27;48.91
43298;BME280;28892;55.640;37.532;2022-07-29T19:08:59;98980.34;;;21.28;48.82
43298;BME280;28892;55.640;37.532;2022-07-29T19:11:25;98980.06;;;21.24;48.66
43298;BME280;28892;55.640;37.532;2022-07-29T19:13:51;98979.53;;;21.27;48.37
43298;BME280;28892;55.640;37.532;2022-07-29T19:16:17;98973.28;;;21.21;48.68
43298;BME280;28892;55.640;37.532;2022-07-29T19:18:42;98976.75;;;21.17;48.52
43298;BME280;28892;55.640;37.532;2022-07-29T19:21:09;98980.53;;;21.16;48.83
43298;BME280;28892;55.640;37.532;2022-07-29T19:23:35;98987.00;;;21.15;49.03
43298;BME280;28892;55.640;37.532;2022-07-29T19:26:01;98985.88;;;21.11;48.68
43298;BME280;28892;55.640;37.532;2022-07-29T19:28:27;98981.31;;;21.11;49.25
43298;BME280;28892;55.640;37.532;2022-07-29T19:30:53;98983.44;;;21.09;48.82
43298;BME280;28892;55.640;37.532;2022-07-29T19:33:19;98979.63;;;21.05;48.90
43298;BME280;28892;55.640;37.532;2022-07-29T19:35:45;98981.84;;;21.13;48.89
43298;BME280;28892;55.640;37.532;2022-07-29T19:38:12;98987.78;;;21.15;48.90
43298;BME280;28892;55.640;37.532;2022-07-29T19:40:38;98986.69;;;21.11;48.88
43298;BME280;28892;55.640;37.532;2022-07-29T19:43:04;98982.94;;;21.17;48.64
43298;BME280;28892;55.640;37.532;2022-07-29T19:45:30;98978.41;;;21.23;48.49
43298;BME280;28892;55.640;37.532;2022-07-29T19:47:57;98980.06;;;21.24;48.24
43298;BME280;28892;55.640;37.532;2022-07-29T19:50:23;98982.72;;;21.19;48.84
43298;BME280;28892;55.640;37.532;2022-07-29T19:52:50;98982.94;;;21.17;48.85
43298;BME280;28892;55.640;37.532;2022-07-29T19:55:16;98981.09;;;21.18;48.93
43298;BME280;28892;55.640;37.532;2022-07-29T19:57:42;98986.22;;;21.19;48.93
43298;BME280;28892;55.640;37.532;2022-07-29T20:00:10;98974.31;;;21.15;48.91
43298;BME280;28892;55.640;37.532;2022-07-29T20:02:36;98978.91;;;21.15;48.60
43298;BME280;28892;55.640;37.532;2022-07-29T20:05:03;98971.91;;;21.14;49.04
43298;BME280;28892;55.640;37.532;2022-07-29T20:07:28;98980.75;;;21.09;49.09
43298;BME280;28892;55.640;37.532;2022-07-29T20:09:54;98980.44;;;21.05;49.49
43298;BME280;28892;55.640;37.532;2022-07-29T20:12:21;98982.59;;;21.03;49.61
43298;BME280;28892;55.640;37.532;2022-07-29T20:14:48;98984.72;;;21.01;49.83
43298;BME280;28892;55.640;37.532;2022-07-29T20:17:14;98986.31;;;20.97;49.77
43298;BME280;28892;55.640;37.532;2022-07-29T20:19:39;98991.19;;;21.00;49.68
43298;BME280;28892;55.640;37.532;2022-07-29T20:22:08;98986.81;;;20.94;50.10
43298;BME280;28892;55.640;37.532;2022-07-29T20:24:33;98983.31;;;20.93;50.10
43298;BME280;28892;55.640;37.532;2022-07-29T20:26:59;98988.97;;;20.92;49.90
43298;BME280;28892;55.640;37.532;2022-07-29T20:29:25;98990.84;;;20.91;50.22
43298;BME280;28892;55.640;37.532;2022-07-29T20:31:51;98996.47;;;20.90;50.33
43298;BME280;28892;55.640;37.532;2022-07-29T20:34:17;98989.47;;;20.89;50.34
43298;BME280;28892;55.640;37.532;2022-07-29T20:36:43;98998.63;;;20.88;50.52
43298;BME280;28892;55.640;37.532;2022-07-29T20:39:09;99004.78;;;20.83;50.96
43298;BME280;28892;55.640;37.532;2022-07-29T20:41:34;99004.19;;;20.81;50.59
43298;BME280;28892;55.640;37.532;2022-07-29T20:44:01;99011.97;;;20.77;51.18
43298;BME280;28892;55.640;37.532;2022-07-29T20:46:27;99007.09;;;20.74;51.28
43298;BME280;28892;55.640;37.532;2022-07-29T20:48:53;99013.25;;;20.70;51.25
43298;BME280;28892;55.640;37.532;2022-07-29T20:51:19;99012.59;;;20.57;51.83
43298;BME280;28892;55.640;37.532;2022-07-29T20:53:45;99021.47;;;20.58;51.51
43298;BME280;28892;55.640;37.532;2022-07-29T20:56:11;99020.88;;;20.50;51.54
43298;BME280;28892;55.640;37.532;2022-07-29T20:58:38;99013.84;;;20.49;51.80
43298;BME280;28892;55.640;37.532;2022-07-29T21:01:05;99028.63;;;20.47;52.10
43298;BME280;28892;55.640;37.532;2022-07-29T21:03:31;99022.38;;;20.41;52.20
43298;BME280;28892;55.640;37.532;2022-07-29T21:05:58;99028.00;;;20.40;51.82
43298;BME280;28892;55.640;37.532;2022-07-29T21:08:24;99033.16;;;20.41;52.21
43298;BME280;28892;55.640;37.532;2022-07-29T21:10:51;99032.88;;;20.43;52.12
43298;BME280;28892;55.640;37.532;2022-07-29T21:13:17;99036.91;;;20.40;52.26
43298;BME280;28892;55.640;37.532;2022-07-29T21:15:45;99039.81;;;20.33;52.46
43298;BME280;28892;55.640;37.532;2022-07-29T21:18:14;99042.31;;;20.40;52.29
43298;BME280;28892;55.640;37.532;2022-07-29T21:20:52;99043.06;;;20.35;52.64
43298;BME280;28892;55.640;37.532;2022-07-29T21:23:18;99048.69;;;20.34;52.07
43298;BME280;28892;55.640;37.532;2022-07-29T21:25:44;99051.56;;;20.27;52.38
43298;BME280;28892;55.640;37.532;2022-07-29T21:28:10;99049.06;;;20.20;52.44
43298;BME280;28892;55.640;37.532;2022-07-29T21:31:03;99049.34;;;20.46;51.67
43298;BME280;28892;55.640;37.532;2022-07-29T21:33:30;99047.38;;;20.36;52.00
43298;BME280;28892;55.640;37.532;2022-07-29T21:35:56;99047.88;;;20.33;52.03
43298;BME280;28892;55.640;37.532;2022-07-29T21:38:22;99047.28;;;20.31;51.50
43298;BME280;28892;55.640;37.532;2022-07-29T21:40:49;99057.69;;;20.22;51.69
43298;BME280;28892;55.640;37.532;2022-07-29T21:43:15;99051.94;;;20.14;51.96
43298;BME280;28892;55.640;37.532;2022-07-29T21:45:42;99064.56;;;20.13;51.65
43298;BME280;28892;55.640;37.532;2022-07-29T21:48:09;99065.66;;;20.12;52.00
43298;BME280;28892;55.640;37.532;2022-07-29T21:50:34;99067.69;;;20.05;51.92
43298;BME280;28892;55.640;37.532;2022-07-29T21:53:00;99067.41;;;20.01;52.17
43298;BME280;28892;55.640;37.532;2022-07-29T21:55:26;99068.69;;;19.99;52.10
43298;BME280;28892;55.640;37.532;2022-07-29T21:57:56;99073.25;;;19.98;52.46
43298;BME280;28892;55.640;37.532;2022-07-29T22:00:22;99066.41;;;19.90;52.57
43298;BME280;28892;55.640;37.532;2022-07-29T22:02:53;99068.28;;;19.90;52.72
43298;BME280;28892;55.640;37.532;2022-07-29T22:05:19;99061.75;;;19.86;52.69
43298;BME280;28892;55.640;37.532;2022-07-29T22:07:46;99071.88;;;19.78;53.23
43298;BME280;28892;55.640;37.532;2022-07-29T22:10:13;99072.13;;;19.77;53.16
43298;BME280;28892;55.640;37.532;2022-07-29T22:12:39;99068.13;;;19.79;53.10
43298;BME280;28892;55.640;37.532;2022-07-29T22:15:06;99070.22;;;19.77;53.00
43298;BME280;28892;55.640;37.532;2022-07-29T22:17:32;99075.06;;;19.75;53.09
43298;BME280;28892;55.640;37.532;2022-07-29T22:19:58;99079.81;;;19.68;53.46
43298;BME280;28892;55.640;37.532;2022-07-29T22:22:24;99079.81;;;19.68;53.21
43298;BME280;28892;55.640;37.532;2022-07-29T22:24:50;99075.16;;;19.63;53.70
43298;BME280;28892;55.640;37.532;2022-07-29T22:27:15;99082.41;;;19.63;53.51
43298;BME280;28892;55.640;37.532;2022-07-29T22:29:41;99086.66;;;19.59;53.58
43298;BME280;28892;55.640;37.532;2022-07-29T22:32:07;99087.13;;;19.55;53.55
43298;BME280;28892;55.640;37.532;2022-07-29T22:34:32;99080.44;;;19.58;53.51
43298;BME280;28892;55.640;37.532;2022-07-29T22:37:00;99088.03;;;19.61;53.37
43298;BME280;28892;55.640;37.532;2022-07-29T22:39:25;99085.03;;;19.58;53.21
43298;BME280;28892;55.640;37.532;2022-07-29T22:41:51;99091.53;;;19.45;53.44
43298;BME280;28892;55.640;37.532;2022-07-29T22:44:17;99089.50;;;19.52;53.13
43298;BME280;28892;55.640;37.532;2022-07-29T22:46:43;99088.28;;;19.43;53.45
43298;BME280;28892;55.640;37.532;2022-07-29T22:49:08;99093.81;;;19.36;53.08
43298;BME280;28892;55.640;37.532;2022-07-29T22:51:34;99100.84;;;19.37;53.32
43298;BME280;28892;55.640;37.532;2022-07-29T22:54:01;99105.03;;;19.33;53.20
43298;BME280;28892;55.640;37.532;2022-07-29T22:56:26;99101.00;;;19.30;52.92
43298;BME280;28892;55.640;37.532;2022-07-29T22:58:52;99098.03;;;19.32;52.90
43298;BME280;28892;55.640;37.532;2022-07-29T23:01:20;99106.25;;;19.25;53.01
43298;BME280;28892;55.640;37.532;2022-07-29T23:03:46;99103.38;;;19.15;52.85
43298;BME280;28892;55.640;37.532;2022-07-29T23:06:12;99105.16;;;19.09;52.96
43298;BME280;28892;55.640;37.532;2022-07-29T23:08:39;99108.09;;;19.07;53.18
43298;BME280;28892;55.640;37.532;2022-07-29T23:11:06;99109.75;;;19.08;53.16
43298;BME280;28892;55.640;37.532;2022-07-29T23:13:32;99111.59;;;19.08;53.13
43298;BME280;28892;55.640;37.532;2022-07-29T23:15:57;99106.22;;;19.08;52.69
43298;BME280;28892;55.640;37.532;2022-07-29T23:18:23;99105.09;;;19.04;52.93
43298;BME280;28892;55.640;37.532;2022-07-29T23:20:49;99111.84;;;19.06;53.08
43298;BME280;28892;55.640;37.532;2022-07-29T23:23:15;99109.75;;;19.08;52.58
43298;BME280;28892;55.640;37.532;2022-07-29T23:25:41;99108.00;;;19.02;52.70
43298;BME280;28892;55.640;37.532;2022-07-29T23:28:06;99106.25;;;18.96;52.62
43298;BME280;28892;55.640;37.532;2022-07-29T23:30:33;99104.53;;;18.90;52.67
43298;BME280;28892;55.640;37.532;2022-07-29T23:32:59;99103.47;;;18.91;52.96
43298;BME280;28892;55.640;37.532;2022-07-29T23:35:25;99106.38;;;18.89;52.87
43298;BME280;28892;55.640;37.532;2022-07-29T23:37:51;99106.31;;;18.84;52.40
43298;BME280;28892;55.640;37.532;2022-07-29T23:40:17;99105.47;;;18.83;52.29
43298;BME280;28892;55.640;37.532;2022-07-29T23:42:43;99111.09;;;18.82;52.30
43298;BME280;28892;55.640;37.532;2022-07-29T23:45:10;99105.25;;;18.85;52.09
43298;BME280;28892;55.640;37.532;2022-07-29T23:47:36;99109.78;;;18.84;52.26
43298;BME280;28892;55.640;37.532;2022-07-29T23:50:03;99109.34;;;18.88;52.34
43298;BME280;28892;55.640;37.532;2022-07-29T23:52:29;99101.88;;;18.78;52.30
43298;BME280;28892;55.640;37.532;2022-07-29T23:54:55;99108.31;;;18.77;52.24
43298;BME280;28892;55.640;37.532;2022-07-29T23:57:20;99100.50;;;18.75;52.19
43298;BME280;28892;55.640;37.532;2022-07-29T23:59:48;99101.66;;;18.79;52.02
